La rose des vents
Donnes mto: Semaine 31/03/08 - 06/04/08 (S 14)
Date Horaire Temp. E. Hum. E. P.atmo. Pluie Vent 1mn Direction Ensoleilleme Ev.Tr. Solaire P. de rose Temp au vent Rafales
31/03/2008 00:00 10,1 C 75 % 1015,2 hPa 0,0 l/m 2,6 km/h (1 Bft) O-NO 0,00 h 0,025 mm 0 W/m 5,8 C 10,1 C 4,0 km/h (1 Bft)
31/03/2008 01:00 9,9 C 71 % 1014,4 hPa 0,0 l/m 2,1 km/h (1 Bft) O-NO 0,00 h 0,025 mm 0 W/m 4,9 C 9,9 C 3,2 km/h (1 Bft)
31/03/2008 02:00 9,3 C 71 % 1013,7 hPa 0,0 l/m 1,6 km/h (1 Bft) N-NE 0,00 h 0,025 mm 0 W/m 4,3 C 9,3 C 3,1 km/h (1 Bft)
31/03/2008 03:00 9,1 C 72 % 1013,0 hPa 0,0 l/m 1,3 km/h (1 Bft) N-NE 0,00 h 0,025 mm 0 W/m 4,3 C 9,0 C 2,2 km/h (1 Bft)
31/03/2008 04:00 9,5 C 73 % 1012,4 hPa 0,0 l/m 2,6 km/h (1 Bft) NE 0,00 h 0,025 mm 0 W/m 4,9 C 9,5 C 4,5 km/h (1 Bft)
31/03/2008 05:00 9,3 C 72 % 1011,9 hPa 0,0 l/m 2,1 km/h (1 Bft) NE 0,00 h 0,025 mm 0 W/m 4,5 C 9,3 C 4,1 km/h (1 Bft)
31/03/2008 06:00 9,4 C 72 % 1011,5 hPa 0,0 l/m 2,9 km/h (1 Bft) N-NO 0,00 h 0,025 mm 0 W/m 4,6 C 9,4 C 4,9 km/h (1 Bft)
31/03/2008 07:00 9,9 C 71 % 1011,4 hPa 0,0 l/m 1,9 km/h (1 Bft) N-NO 0,00 h 0,025 mm 14 W/m 5,0 C 9,9 C 3,5 km/h (1 Bft)
31/03/2008 08:00 10,5 C 67 % 1011,4 hPa 0,0 l/m 2,5 km/h (1 Bft) NO 0,00 h 0,025 mm 79 W/m 4,5 C 10,5 C 4,2 km/h (1 Bft)
31/03/2008 09:00 11,7 C 66 % 1011,2 hPa 0,0 l/m 0,1 km/h (0 Bft) NO 0,00 h 0,051 mm 122 W/m 5,7 C 11,7 C 0,5 km/h (0 Bft)
31/03/2008 10:00 12,6 C 67 % 1010,8 hPa 0,0 l/m 1,3 km/h (1 Bft) NO 0,15 h 0,076 mm 229 W/m 6,5 C 12,6 C 2,5 km/h (1 Bft)
31/03/2008 11:00 13,8 C 63 % 1011,0 hPa 0,0 l/m 5,9 km/h (2 Bft) E 0,00 h 0,127 mm 241 W/m 6,8 C 13,8 C 10,0 km/h (2 Bft)
31/03/2008 12:00 13,1 C 77 % 1010,9 hPa 0,0 l/m 3,6 km/h (1 Bft) E-SE 0,00 h 0,152 mm 147 W/m 9,2 C 13,1 C 6,1 km/h (2 Bft)
31/03/2008 13:00 13,5 C 73 % 1010,3 hPa 0,0 l/m 11,4 km/h (2 Bft) O-SO 0,00 h 0,076 mm 211 W/m 8,7 C 13,5 C 16,3 km/h (3 Bft)
31/03/2008 14:00 13,2 C 69 % 1010,9 hPa 0,0 l/m 8,9 km/h (2 Bft) O-SO 0,00 h 0,152 mm 187 W/m 7,6 C 13,2 C 13,1 km/h (3 Bft)
31/03/2008 15:00 13,8 C 61 % 1011,0 hPa 0,0 l/m 10,2 km/h (2 Bft) E 0,00 h 0,127 mm 182 W/m 6,4 C 13,8 C 15,6 km/h (3 Bft)
31/03/2008 16:00 13,5 C 62 % 1010,9 hPa 0,0 l/m 6,4 km/h (2 Bft) S 0,00 h 0,152 mm 118 W/m 6,3 C 13,5 C 10,5 km/h (2 Bft)
31/03/2008 17:00 12,9 C 64 % 1011,3 hPa 0,0 l/m 5,5 km/h (1 Bft) E 0,00 h 0,102 mm 50 W/m 6,3 C 12,9 C 9,2 km/h (2 Bft)
31/03/2008 18:00 12,6 C 65 % 1011,2 hPa 0,0 l/m 4,7 km/h (1 Bft) O 0,00 h 0,051 mm 26 W/m 6,1 C 12,6 C 7,0 km/h (2 Bft)
31/03/2008 19:00 12,2 C 66 % 1011,2 hPa 0,0 l/m 6,4 km/h (2 Bft) O 0,00 h 0,051 mm 11 W/m 6,1 C 12,2 C 8,7 km/h (2 Bft)
31/03/2008 20:00 12,0 C 66 % 1011,7 hPa 0,0 l/m 8,9 km/h (2 Bft) O-NO 0,00 h 0,025 mm 0 W/m 5,9 C 12,0 C 12,2 km/h (2 Bft)
31/03/2008 21:00 11,9 C 65 % 1011,9 hPa 0,0 l/m 0,9 km/h (0 Bft) O-NO 0,00 h 0,051 mm 0 W/m 5,7 C 11,9 C 1,9 km/h (1 Bft)
31/03/2008 22:00 11,8 C 65 % 1012,1 hPa 0,0 l/m 1,3 km/h (1 Bft) O-NO 0,00 h 0,025 mm 0 W/m 5,3 C 11,8 C 3,0 km/h (1 Bft)
31/03/2008 23:00 11,8 C 59 % 1012,2 hPa 0,0 l/m 0,6 km/h (0 Bft) O-NO 0,00 h 0,050 mm 0 W/m 4,0 C 11,8 C 1,3 km/h (1 Bft)
01/04/2008 00:00 11,5 C 57 % 1012,3 hPa 0,0 l/m 2,4 km/h (1 Bft) O-NO 0,00 h 0,000 mm 0 W/m 3,2 C 11,5 C 3,7 km/h (1 Bft)
01/04/2008 01:00 10,6 C 59 % 1012,5 hPa 0,0 l/m 2,6 km/h (1 Bft) O-NO 0,00 h 0,051 mm 0 W/m 2,9 C 10,6 C 3,9 km/h (1 Bft)
01/04/2008 02:00 10,3 C 58 % 1012,6 hPa 0,0 l/m 0,9 km/h (0 Bft) NO 0,00 h 0,051 mm 0 W/m 2,4 C 10,3 C 1,9 km/h (1 Bft)
01/04/2008 03:00 10,8 C 54 % 1012,7 hPa 0,0 l/m 3,0 km/h (1 Bft) E-SE 0,00 h 0,025 mm 0 W/m 1,8 C 10,8 C 4,4 km/h (1 Bft)
01/04/2008 04:00 10,6 C 50 % 1012,8 hPa 0,0 l/m 2,3 km/h (1 Bft) N 0,00 h 0,051 mm 0 W/m 0,7 C 10,6 C 4,3 km/h (1 Bft)
01/04/2008 05:00 10,9 C 47 % 1012,9 hPa 0,0 l/m 2,3 km/h (1 Bft) N 0,00 h 0,051 mm 0 W/m -0,0 C 10,9 C 4,2 km/h (1 Bft)
01/04/2008 06:00 11,5 C 45 % 1013,1 hPa 0,0 l/m 3,8 km/h (1 Bft) N-NO 0,00 h 0,051 mm 0 W/m 0,0 C 11,5 C 6,6 km/h (2 Bft)
01/04/2008 07:00 12,0 C 44 % 1013,5 hPa 0,0 l/m 4,1 km/h (1 Bft) N-NO 0,03 h 0,025 mm 21 W/m -0,0 C 12,0 C 6,6 km/h (2 Bft)
01/04/2008 08:00 13,3 C 45 % 1014,1 hPa 0,0 l/m 0,7 km/h (0 Bft) N-NO 0,07 h 0,051 mm 76 W/m 1,5 C 13,3 C 1,3 km/h (1 Bft)
01/04/2008 09:00 16,3 C 42 % 1014,5 hPa 0,0 l/m 0,3 km/h (0 Bft) NE 1,00 h 0,051 mm 341 W/m 3,4 C 16,3 C 1,0 km/h (0 Bft)
01/04/2008 10:00 18,9 C 37 % 1014,8 hPa 0,0 l/m 2,1 km/h (1 Bft) E 1,00 h 0,203 mm 523 W/m 3,9 C 18,9 C 4,0 km/h (1 Bft)
01/04/2008 11:00 20,3 C 31 % 1015,0 hPa 0,0 l/m 7,4 km/h (2 Bft) S 1,00 h 0,330 mm 653 W/m 2,6 C 20,3 C 11,7 km/h (2 Bft)
01/04/2008 12:00 19,8 C 36 % 1015,5 hPa 0,0 l/m 9,4 km/h (2 Bft) S 1,00 h 0,457 mm 738 W/m 4,5 C 19,8 C 15,1 km/h (3 Bft)
01/04/2008 13:00 19,1 C 34 % 1015,8 hPa 0,0 l/m 13,2 km/h (3 Bft) S 1,00 h 0,508 mm 770 W/m 2,7 C 19,1 C 19,4 km/h (3 Bft)
01/04/2008 14:00 19,7 C 31 % 1016,0 hPa 0,0 l/m 10,4 km/h (2 Bft) S-SE 1,00 h 0,559 mm 744 W/m 2,0 C 19,7 C 16,0 km/h (3 Bft)
01/04/2008 15:00 19,8 C 30 % 1015,9 hPa 0,0 l/m 9,9 km/h (2 Bft) S-SE 1,00 h 0,533 mm 662 W/m 1,9 C 19,8 C 15,2 km/h (3 Bft)
01/04/2008 16:00 19,9 C 31 % 1015,7 hPa 0,0 l/m 8,2 km/h (2 Bft) S-SE 1,00 h 0,483 mm 535 W/m 2,2 C 19,9 C 12,6 km/h (3 Bft)
01/04/2008 17:00 19,5 C 30 % 1015,6 hPa 0,0 l/m 9,5 km/h (2 Bft) S-SE 1,00 h 0,381 mm 373 W/m 1,6 C 19,5 C 13,2 km/h (3 Bft)
01/04/2008 18:00 19,0 C 31 % 1015,7 hPa 0,0 l/m 10,9 km/h (2 Bft) S-SO 1,00 h 0,305 mm 193 W/m 1,4 C 19,0 C 14,8 km/h (3 Bft)
01/04/2008 19:00 17,0 C 36 % 1016,2 hPa 0,0 l/m 7,5 km/h (2 Bft) SO 0,15 h 0,229 mm 40 W/m 1,8 C 17,0 C 10,1 km/h (2 Bft)
01/04/2008 20:00 15,1 C 43 % 1016,7 hPa 0,0 l/m 7,6 km/h (2 Bft) O 0,00 h 0,102 mm 0 W/m 2,7 C 15,1 C 9,9 km/h (2 Bft)
01/04/2008 21:00 14,2 C 45 % 1017,0 hPa 0,0 l/m 8,7 km/h (2 Bft) O-NO 0,00 h 0,076 mm 0 W/m 2,4 C 14,2 C 10,9 km/h (2 Bft)
01/04/2008 22:00 13,7 C 46 % 1017,1 hPa 0,0 l/m 15,1 km/h (3 Bft) O-NO 0,00 h 0,102 mm 0 W/m 2,4 C 13,7 C 19,1 km/h (3 Bft)
01/04/2008 23:00 13,0 C 50 % 1016,9 hPa 0,0 l/m 10,0 km/h (2 Bft) O 0,00 h 0,127 mm 0 W/m 2,8 C 13,0 C 13,7 km/h (3 Bft)
02/04/2008 00:00 13,3 C 49 % 1016,9 hPa 0,0 l/m 7,8 km/h (2 Bft) O-NO 0,00 h 0,076 mm 0 W/m 2,8 C 13,3 C 11,0 km/h (2 Bft)
02/04/2008 01:00 12,6 C 51 % 1016,8 hPa 0,0 l/m 4,0 km/h (1 Bft) O-NO 0,00 h 0,076 mm 0 W/m 2,6 C 12,6 C 6,3 km/h (2 Bft)
02/04/2008 02:00 12,7 C 49 % 1016,4 hPa 0,0 l/m 4,5 km/h (1 Bft) O-NO 0,00 h 0,051 mm 0 W/m 2,3 C 12,7 C 6,7 km/h (2 Bft)
02/04/2008 03:00 13,3 C 45 % 1016,1 hPa 0,0 l/m 3,1 km/h (1 Bft) N-NO 0,00 h 0,051 mm 0 W/m 1,8 C 13,3 C 4,5 km/h (1 Bft)
02/04/2008 04:00 13,4 C 44 % 1015,7 hPa 0,0 l/m 1,5 km/h (1 Bft) O 0,00 h 0,051 mm 0 W/m 1,4 C 13,4 C 2,3 km/h (1 Bft)
02/04/2008 05:00 12,8 C 47 % 1015,7 hPa 0,0 l/m 1,4 km/h (1 Bft) O 0,00 h 0,051 mm 0 W/m 1,6 C 12,8 C 2,3 km/h (1 Bft)
02/04/2008 06:00 13,0 C 46 % 1015,5 hPa 0,0 l/m 1,8 km/h (1 Bft) O 0,00 h 0,051 mm 0 W/m 1,8 C 13,0 C 2,9 km/h (1 Bft)
02/04/2008 07:00 13,1 C 46 % 1015,5 hPa 0,0 l/m 2,7 km/h (1 Bft) O-NO 0,02 h 0,025 mm 24 W/m 1,8 C 13,1 C 3,9 km/h (1 Bft)
02/04/2008 08:00 13,5 C 48 % 1015,6 hPa 0,0 l/m 4,0 km/h (1 Bft) O 0,00 h 0,025 mm 96 W/m 2,8 C 13,5 C 5,6 km/h (1 Bft)
02/04/2008 09:00 15,0 C 46 % 1015,9 hPa 0,0 l/m 2,1 km/h (1 Bft) N-NO 0,43 h 0,076 mm 260 W/m 3,6 C 15,0 C 3,6 km/h (1 Bft)
02/04/2008 10:00 18,4 C 41 % 1015,8 hPa 0,0 l/m 1,8 km/h (1 Bft) E-SE 1,00 h 0,152 mm 449 W/m 4,8 C 18,4 C 3,7 km/h (1 Bft)
02/04/2008 11:00 19,6 C 38 % 1015,2 hPa 0,0 l/m 4,5 km/h (1 Bft) E-SE 1,00 h 0,279 mm 574 W/m 4,9 C 19,6 C 7,0 km/h (2 Bft)
02/04/2008 12:00 19,8 C 37 % 1014,4 hPa 0,0 l/m 5,7 km/h (1 Bft) E 1,00 h 0,381 mm 593 W/m 4,5 C 19,8 C 9,2 km/h (2 Bft)
02/04/2008 13:00 20,3 C 37 % 1013,3 hPa 0,0 l/m 5,0 km/h (1 Bft) S 1,00 h 0,406 mm 711 W/m 5,1 C 20,3 C 8,3 km/h (2 Bft)
02/04/2008 14:00 21,3 C 41 % 1012,1 hPa 0,0 l/m 5,5 km/h (1 Bft) E-SE 0,97 h 0,457 mm 640 W/m 7,5 C 21,3 C 9,4 km/h (2 Bft)
02/04/2008 15:00 20,6 C 48 % 1011,0 hPa 0,0 l/m 8,7 km/h (2 Bft) NE 1,00 h 0,432 mm 572 W/m 9,1 C 20,6 C 13,0 km/h (3 Bft)
02/04/2008 16:00 19,1 C 55 % 1010,4 hPa 0,0 l/m 9,4 km/h (2 Bft) E-NE 1,00 h 0,406 mm 489 W/m 9,7 C 19,1 C 13,5 km/h (3 Bft)
02/04/2008 17:00 18,1 C 56 % 1010,3 hPa 0,0 l/m 10,6 km/h (2 Bft) E-NE 0,98 h 0,330 mm 340 W/m 9,3 C 18,1 C 14,4 km/h (3 Bft)
02/04/2008 18:00 16,7 C 52 % 1011,2 hPa 0,0 l/m 10,6 km/h (2 Bft) E-NE 0,88 h 0,254 mm 183 W/m 6,8 C 16,7 C 14,3 km/h (3 Bft)
02/04/2008 19:00 14,8 C 55 % 1011,6 hPa 0,0 l/m 1,3 km/h (1 Bft) E 0,02 h 0,178 mm 23 W/m 5,9 C 14,8 C 2,5 km/h (1 Bft)
02/04/2008 20:00 13,3 C 56 % 1012,0 hPa 0,0 l/m 2,4 km/h (1 Bft) NO 0,00 h 0,025 mm 0 W/m 4,6 C 13,3 C 4,2 km/h (1 Bft)
02/04/2008 21:00 13,2 C 52 % 1012,4 hPa 0,0 l/m 1,9 km/h (1 Bft) O 0,00 h 0,025 mm 0 W/m 3,5 C 13,2 C 2,9 km/h (1 Bft)
02/04/2008 22:00 12,7 C 53 % 1013,3 hPa 0,0 l/m 1,0 km/h (0 Bft) SE 0,00 h 0,051 mm 0 W/m 3,4 C 12,7 C 1,6 km/h (1 Bft)
02/04/2008 23:00 12,1 C 57 % 1013,7 hPa 0,0 l/m 4,9 km/h (1 Bft) NO 0,00 h 0,051 mm 0 W/m 3,7 C 12,1 C 7,5 km/h (2 Bft)
03/04/2008 00:00 13,2 C 50 % 1013,6 hPa 0,0 l/m 5,0 km/h (1 Bft) O-NO 0,00 h 0,051 mm 0 W/m 3,0 C 13,2 C 6,7 km/h (2 Bft)
03/04/2008 01:00 13,0 C 49 % 1013,6 hPa 0,0 l/m 6,2 km/h (2 Bft) O-NO 0,00 h 0,051 mm 0 W/m 2,6 C 13,0 C 9,0 km/h (2 Bft)
03/04/2008 02:00 12,7 C 48 % 1013,6 hPa 0,0 l/m 8,2 km/h (2 Bft) O 0,00 h 0,076 mm 0 W/m 2,1 C 12,7 C 10,6 km/h (2 Bft)
03/04/2008 03:00 12,4 C 48 % 1013,4 hPa 0,0 l/m 9,8 km/h (2 Bft) O-NO 0,00 h 0,076 mm 0 W/m 1,6 C 12,4 C 12,9 km/h (3 Bft)
03/04/2008 04:00 13,1 C 42 % 1012,9 hPa 0,0 l/m 10,8 km/h (2 Bft) O-NO 0,00 h 0,076 mm 0 W/m 0,6 C 13,1 C 14,6 km/h (3 Bft)
03/04/2008 05:00 12,3 C 44 % 1012,6 hPa 0,0 l/m 5,3 km/h (1 Bft) S-SO 0,00 h 0,102 mm 0 W/m 0,3 C 12,3 C 7,4 km/h (2 Bft)
03/04/2008 06:00 11,0 C 49 % 1012,8 hPa 0,0 l/m 2,3 km/h (1 Bft) S-SO 0,00 h 0,076 mm 0 W/m 0,6 C 11,0 C 3,3 km/h (1 Bft)
03/04/2008 07:00 10,1 C 51 % 1012,8 hPa 0,0 l/m 1,5 km/h (1 Bft) S-SO 0,12 h 0,025 mm 21 W/m 0,5 C 10,1 C 2,9 km/h (1 Bft)
03/04/2008 08:00 12,0 C 50 % 1013,0 hPa 0,0 l/m 3,1 km/h (1 Bft) N-NE 0,30 h 0,025 mm 101 W/m 1,9 C 12,0 C 5,4 km/h (1 Bft)
03/04/2008 09:00 15,0 C 46 % 1013,0 hPa 0,0 l/m 5,0 km/h (1 Bft) E 1,00 h 0,076 mm 369 W/m 3,4 C 15,0 C 7,3 km/h (2 Bft)
03/04/2008 10:00 16,6 C 46 % 1012,8 hPa 0,0 l/m 7,1 km/h (2 Bft) E-NE 1,00 h 0,229 mm 532 W/m 5,0 C 16,6 C 10,2 km/h (2 Bft)
03/04/2008 11:00 17,3 C 47 % 1012,2 hPa 0,0 l/m 7,3 km/h (2 Bft) E 1,00 h 0,330 mm 672 W/m 5,9 C 17,3 C 11,9 km/h (2 Bft)
03/04/2008 12:00 17,3 C 46 % 1011,6 hPa 0,0 l/m 8,2 km/h (2 Bft) E 1,00 h 0,432 mm 759 W/m 5,7 C 17,3 C 12,3 km/h (3 Bft)
03/04/2008 13:00 18,1 C 49 % 1011,2 hPa 0,0 l/m 8,5 km/h (2 Bft) E 1,00 h 0,483 mm 775 W/m 7,3 C 18,1 C 13,3 km/h (3 Bft)
03/04/2008 14:00 18,1 C 50 % 1010,9 hPa 0,0 l/m 8,4 km/h (2 Bft) E 1,00 h 0,483 mm 754 W/m 7,4 C 18,1 C 12,6 km/h (3 Bft)
03/04/2008 15:00 18,0 C 46 % 1010,9 hPa 0,0 l/m 7,3 km/h (2 Bft) E 1,00 h 0,483 mm 684 W/m 6,1 C 18,0 C 11,5 km/h (2 Bft)
03/04/2008 16:00 17,6 C 44 % 1010,6 hPa 0,0 l/m 5,6 km/h (1 Bft) E 1,00 h 0,432 mm 579 W/m 5,4 C 17,6 C 9,5 km/h (2 Bft)
03/04/2008 17:00 16,7 C 44 % 1010,6 hPa 0,0 l/m 3,8 km/h (1 Bft) E-SE 0,48 h 0,356 mm 330 W/m 4,3 C 16,7 C 6,8 km/h (2 Bft)
03/04/2008 18:00 16,5 C 35 % 1011,0 hPa 0,0 l/m 1,4 km/h (1 Bft) E 0,48 h 0,203 mm 192 W/m 0,9 C 16,5 C 3,1 km/h (1 Bft)
03/04/2008 19:00 15,0 C 40 % 1011,6 hPa 0,0 l/m 2,5 km/h (1 Bft) E 0,03 h 0,127 mm 22 W/m 1,6 C 15,0 C 3,4 km/h (1 Bft)
03/04/2008 20:00 13,7 C 42 % 1012,4 hPa 0,0 l/m 2,4 km/h (1 Bft) O 0,00 h 0,051 mm 0 W/m 1,1 C 13,7 C 3,5 km/h (1 Bft)
03/04/2008 21:00 12,8 C 48 % 1013,8 hPa 0,0 l/m 1,9 km/h (1 Bft) N-NE 0,00 h 0,025 mm 0 W/m 2,0 C 12,8 C 3,5 km/h (1 Bft)
03/04/2008 22:00 12,6 C 58 % 1015,0 hPa 0,0 l/m 8,4 km/h (2 Bft) NE 0,00 h 0,051 mm 0 W/m 4,5 C 12,6 C 12,0 km/h (2 Bft)
03/04/2008 23:00 11,8 C 72 % 1015,9 hPa 0,0 l/m 2,3 km/h (1 Bft) N-NE 0,00 h 0,076 mm 0 W/m 6,9 C 11,8 C 4,7 km/h (1 Bft)
04/04/2008 00:00 10,1 C 77 % 1016,2 hPa 0,0 l/m 0,3 km/h (0 Bft) N-NE 0,00 h 0,025 mm 0 W/m 6,2 C 10,1 C 1,1 km/h (1 Bft)
04/04/2008 01:00 9,7 C 80 % 1016,4 hPa 0,0 l/m 2,9 km/h (1 Bft) N-NO 0,00 h 0,025 mm 0 W/m 6,4 C 9,6 C 4,7 km/h (1 Bft)
04/04/2008 02:00 9,4 C 73 % 1016,5 hPa 0,0 l/m 5,3 km/h (1 Bft) N-NO 0,00 h 0,025 mm 0 W/m 4,8 C 8,9 C 8,4 km/h (2 Bft)
04/04/2008 03:00 9,3 C 49 % 1016,4 hPa 0,0 l/m 2,1 km/h (1 Bft) N-NO 0,00 h 0,025 mm 0 W/m -1,0 C 9,2 C 4,5 km/h (1 Bft)
04/04/2008 04:00 9,7 C 37 % 1016,4 hPa 0,0 l/m 3,1 km/h (1 Bft) O-NO 0,00 h 0,051 mm 0 W/m -4,4 C 9,6 C 5,0 km/h (1 Bft)
04/04/2008 05:00 9,2 C 37 % 1016,2 hPa 0,0 l/m 4,5 km/h (1 Bft) O 0,00 h 0,051 mm 0 W/m -4,7 C 8,8 C 6,5 km/h (2 Bft)
04/04/2008 06:00 8,7 C 37 % 1016,4 hPa 0,0 l/m 4,1 km/h (1 Bft) N 0,00 h 0,076 mm 0 W/m -5,3 C 8,3 C 6,6 km/h (2 Bft)
04/04/2008 07:00 8,9 C 33 % 1017,1 hPa 0,0 l/m 3,9 km/h (1 Bft) N-NO 0,03 h 0,025 mm 18 W/m -6,4 C 8,7 C 6,3 km/h (2 Bft)
04/04/2008 08:00 11,4 C 30 % 1017,3 hPa 0,0 l/m 1,4 km/h (1 Bft) N-NO 0,20 h 0,051 mm 104 W/m -5,6 C 11,4 C 3,1 km/h (1 Bft)
04/04/2008 09:00 14,5 C 28 % 1017,5 hPa 0,0 l/m 1,8 km/h (1 Bft) N-NE 1,00 h 0,076 mm 389 W/m -3,9 C 14,5 C 3,7 km/h (1 Bft)
04/04/2008 10:00 16,0 C 26 % 1017,5 hPa 0,0 l/m 8,2 km/h (2 Bft) S 1,00 h 0,229 mm 553 W/m -3,7 C 16,0 C 11,6 km/h (2 Bft)
04/04/2008 11:00 17,1 C 21 % 1018,0 hPa 0,0 l/m 9,1 km/h (2 Bft) S-SE 1,00 h 0,381 mm 688 W/m -5,6 C 17,1 C 13,6 km/h (3 Bft)
04/04/2008 12:00 17,5 C 23 % 1017,8 hPa 0,0 l/m 11,2 km/h (2 Bft) S-SE 1,00 h 0,483 mm 770 W/m -4,2 C 17,5 C 16,9 km/h (3 Bft)
04/04/2008 13:00 17,7 C 20 % 1017,4 hPa 0,0 l/m 12,1 km/h (2 Bft) S 1,00 h 0,533 mm 805 W/m -5,2 C 17,7 C 18,8 km/h (3 Bft)
04/04/2008 14:00 17,6 C 23 % 1017,1 hPa 0,0 l/m 12,6 km/h (3 Bft) S 1,00 h 0,584 mm 780 W/m -3,8 C 17,6 C 18,7 km/h (3 Bft)
04/04/2008 15:00 17,0 C 28 % 1016,7 hPa 0,0 l/m 13,2 km/h (3 Bft) S-SE 1,00 h 0,559 mm 697 W/m -1,4 C 17,0 C 18,7 km/h (3 Bft)
04/04/2008 16:00 16,6 C 28 % 1016,2 hPa 0,0 l/m 15,5 km/h (3 Bft) S 1,00 h 0,508 mm 569 W/m -2,0 C 16,6 C 21,5 km/h (4 Bft)
04/04/2008 17:00 16,2 C 25 % 1016,1 hPa 0,0 l/m 15,5 km/h (3 Bft) S 1,00 h 0,457 mm 406 W/m -3,6 C 16,2 C 21,1 km/h (4 Bft)
04/04/2008 18:00 15,5 C 27 % 1015,8 hPa 0,0 l/m 13,0 km/h (3 Bft) S 1,00 h 0,381 mm 223 W/m -3,3 C 15,5 C 18,0 km/h (3 Bft)
04/04/2008 19:00 14,0 C 31 % 1015,7 hPa 0,0 l/m 7,2 km/h (2 Bft) S-SO 0,43 h 0,254 mm 52 W/m -2,8 C 14,0 C 9,7 km/h (2 Bft)
04/04/2008 20:00 11,9 C 36 % 1015,6 hPa 0,0 l/m 7,2 km/h (2 Bft) O-SO 0,00 h 0,102 mm 5 W/m -2,8 C 11,9 C 10,0 km/h (2 Bft)
04/04/2008 21:00 11,0 C 40 % 1015,5 hPa 0,0 l/m 5,7 km/h (1 Bft) O 0,00 h 0,051 mm 0 W/m -2,2 C 11,0 C 7,9 km/h (2 Bft)
04/04/2008 22:00 10,6 C 41 % 1015,6 hPa 0,0 l/m 2,4 km/h (1 Bft) O 0,00 h 0,076 mm 0 W/m -2,0 C 10,6 C 3,9 km/h (1 Bft)
04/04/2008 23:00 9,8 C 45 % 1015,5 hPa 0,0 l/m 0,4 km/h (0 Bft) O 0,00 h 0,051 mm 0 W/m -1,5 C 9,8 C 0,9 km/h (0 Bft)
05/04/2008 00:00 9,4 C 49 % 1015,3 hPa 0,0 l/m 1,6 km/h (1 Bft) O 0,00 h 0,051 mm 0 W/m -0,8 C 9,4 C 2,6 km/h (1 Bft)
05/04/2008 01:00 8,6 C 48 % 1014,8 hPa 0,0 l/m 5,8 km/h (1 Bft) O-NO 0,00 h 0,051 mm 0 W/m -1,9 C 7,8 C 8,5 km/h (2 Bft)
05/04/2008 02:00 7,7 C 51 % 1014,4 hPa 0,0 l/m 4,7 km/h (1 Bft) NO 0,00 h 0,051 mm 0 W/m -1,9 C 7,0 C 6,9 km/h (2 Bft)
05/04/2008 03:00 8,4 C 49 % 1013,7 hPa 0,0 l/m 9,5 km/h (2 Bft) O-NO 0,00 h 0,051 mm 0 W/m -1,7 C 6,9 C 13,6 km/h (3 Bft)
05/04/2008 04:00 9,2 C 44 % 1013,0 hPa 0,0 l/m 4,3 km/h (1 Bft) NO 0,00 h 0,076 mm 0 W/m -2,4 C 9,0 C 5,7 km/h (1 Bft)
05/04/2008 05:00 9,1 C 42 % 1012,5 hPa 0,0 l/m 3,7 km/h (1 Bft) NO 0,00 h 0,051 mm 0 W/m -3,2 C 8,9 C 5,2 km/h (1 Bft)
05/04/2008 06:00 8,2 C 45 % 1012,4 hPa 0,0 l/m 6,9 km/h (2 Bft) S-SO 0,00 h 0,051 mm 0 W/m -3,1 C 7,1 C 8,4 km/h (2 Bft)
05/04/2008 07:00 7,8 C 46 % 1012,4 hPa 0,0 l/m 3,3 km/h (1 Bft) O-NO 0,02 h 0,051 mm 19 W/m -3,1 C 7,6 C 4,9 km/h (1 Bft)
05/04/2008 08:00 9,0 C 45 % 1012,3 hPa 0,0 l/m 0,3 km/h (0 Bft) N 0,18 h 0,025 mm 106 W/m -2,4 C 9,0 C 0,9 km/h (0 Bft)
05/04/2008 09:00 11,9 C 41 % 1012,3 hPa 0,0 l/m 2,4 km/h (1 Bft) S-SE 1,00 h 0,051 mm 378 W/m -0,8 C 11,9 C 4,8 km/h (1 Bft)
05/04/2008 10:00 14,6 C 35 % 1011,9 hPa 0,0 l/m 5,2 km/h (1 Bft) E-NE 1,00 h 0,203 mm 542 W/m -0,5 C 14,6 C 8,7 km/h (2 Bft)
05/04/2008 11:00 15,5 C 43 % 1011,5 hPa 0,0 l/m 6,2 km/h (2 Bft) E 1,00 h 0,330 mm 674 W/m 2,8 C 15,5 C 10,3 km/h (2 Bft)
05/04/2008 12:00 16,2 C 51 % 1010,7 hPa 0,0 l/m 8,9 km/h (2 Bft) E 1,00 h 0,406 mm 768 W/m 6,2 C 16,2 C 13,6 km/h (3 Bft)
05/04/2008 13:00 16,0 C 59 % 1009,9 hPa 0,0 l/m 9,7 km/h (2 Bft) E 1,00 h 0,457 mm 786 W/m 8,0 C 16,0 C 14,8 km/h (3 Bft)
05/04/2008 14:00 16,2 C 61 % 1009,0 hPa 0,0 l/m 10,5 km/h (2 Bft) E 1,00 h 0,483 mm 762 W/m 8,7 C 16,2 C 16,3 km/h (3 Bft)
05/04/2008 15:00 15,8 C 63 % 1008,1 hPa 0,0 l/m 10,9 km/h (2 Bft) E 1,00 h 0,457 mm 677 W/m 8,8 C 15,8 C 16,6 km/h (3 Bft)
05/04/2008 16:00 15,1 C 67 % 1007,1 hPa 0,0 l/m 8,9 km/h (2 Bft) E 0,82 h 0,406 mm 487 W/m 9,1 C 15,1 C 14,5 km/h (3 Bft)
05/04/2008 17:00 14,1 C 73 % 1006,6 hPa 0,0 l/m 7,1 km/h (2 Bft) E 0,63 h 0,305 mm 297 W/m 9,5 C 14,1 C 10,8 km/h (2 Bft)
05/04/2008 18:00 13,8 C 72 % 1006,1 hPa 0,0 l/m 3,6 km/h (1 Bft) E 0,97 h 0,178 mm 208 W/m 8,9 C 13,8 C 6,5 km/h (2 Bft)
05/04/2008 19:00 12,4 C 76 % 1005,8 hPa 0,0 l/m 0,9 km/h (0 Bft) E-SE 0,53 h 0,127 mm 54 W/m 8,3 C 12,4 C 2,7 km/h (1 Bft)
05/04/2008 20:00 10,5 C 80 % 1005,2 hPa 0,0 l/m 0,4 km/h (0 Bft) E-SE 0,00 h 0,025 mm 6 W/m 7,2 C 10,5 C 1,2 km/h (1 Bft)
05/04/2008 21:00 9,7 C 83 % 1004,9 hPa 0,0 l/m 0,1 km/h (0 Bft) E-SE 0,00 h 0,000 mm 0 W/m 6,9 C 9,7 C 0,3 km/h (0 Bft)
05/04/2008 22:00 9,2 C 84 % 1004,7 hPa 0,0 l/m 0,2 km/h (0 Bft) E 0,00 h 0,025 mm 0 W/m 6,7 C 9,2 C 0,6 km/h (0 Bft)
05/04/2008 23:00 8,9 C 87 % 1004,2 hPa 0,0 l/m 1,5 km/h (1 Bft) N 0,00 h 0,025 mm 0 W/m 6,8 C 8,9 C 2,9 km/h (1 Bft)
06/04/2008 00:00 9,3 C 88 % 1003,8 hPa 0,0 l/m 1,0 km/h (0 Bft) N-NO 0,00 h 0,025 mm 0 W/m 7,4 C 9,3 C 2,0 km/h (1 Bft)
06/04/2008 01:00 8,4 C 89 % 1003,0 hPa 0,0 l/m 2,6 km/h (1 Bft) NO 0,00 h 0,025 mm 0 W/m 6,7 C 8,3 C 4,3 km/h (1 Bft)
06/04/2008 02:00 7,7 C 90 % 1002,2 hPa 0,0 l/m 2,9 km/h (1 Bft) NO 0,00 h 0,025 mm 0 W/m 6,2 C 7,7 C 4,5 km/h (1 Bft)
06/04/2008 03:00 7,9 C 91 % 1001,7 hPa 0,0 l/m 2,9 km/h (1 Bft) NO 0,00 h 0,025 mm 0 W/m 6,5 C 7,8 C 4,5 km/h (1 Bft)
06/04/2008 04:00 7,9 C 91 % 1001,3 hPa 0,0 l/m 2,7 km/h (1 Bft) NO 0,00 h 0,000 mm 0 W/m 6,5 C 7,8 C 3,9 km/h (1 Bft)
06/04/2008 05:00 8,0 C 91 % 1000,9 hPa 0,0 l/m 2,5 km/h (1 Bft) NO 0,00 h 0,000 mm 0 W/m 6,6 C 7,9 C 4,0 km/h (1 Bft)
06/04/2008 06:00 7,6 C 91 % 1000,4 hPa 0,0 l/m 2,0 km/h (1 Bft) NO 0,00 h 0,000 mm 0 W/m 6,2 C 7,5 C 3,3 km/h (1 Bft)
06/04/2008 07:00 7,3 C 91 % 1000,1 hPa 0,0 l/m 3,6 km/h (1 Bft) NO 0,00 h 0,000 mm 27 W/m 5,9 C 7,0 C 5,4 km/h (1 Bft)
06/04/2008 08:00 8,7 C 90 % 999,8 hPa 0,0 l/m 2,1 km/h (1 Bft) O 0,33 h 0,025 mm 126 W/m 7,3 C 8,7 C 3,9 km/h (1 Bft)
06/04/2008 09:00 11,7 C 78 % 999,2 hPa 0,0 l/m 3,0 km/h (1 Bft) NE 1,00 h 0,051 mm 369 W/m 8,0 C 11,7 C 4,9 km/h (1 Bft)
06/04/2008 10:00 15,3 C 54 % 998,4 hPa 0,0 l/m 7,2 km/h (2 Bft) E-NE 1,00 h 0,178 mm 549 W/m 5,8 C 15,3 C 11,8 km/h (2 Bft)
06/04/2008 11:00 17,8 C 34 % 997,4 hPa 0,0 l/m 27,5 km/h (4 Bft) O-SO 1,00 h 0,330 mm 690 W/m 1,7 C 17,8 C 37,0 km/h (5 Bft)
06/04/2008 12:00 18,5 C 31 % 996,6 hPa 0,0 l/m 35,4 km/h (5 Bft) SO 1,00 h 0,635 mm 772 W/m 1,0 C 18,5 C 46,5 km/h (6 Bft)
06/04/2008 13:00 18,9 C 30 % 996,2 hPa 0,0 l/m 41,3 km/h (6 Bft) SO 1,00 h 0,762 mm 798 W/m 0,9 C 18,9 C 53,5 km/h (7 Bft)
06/04/2008 14:00 19,5 C 28 % 995,8 hPa 0,0 l/m 41,3 km/h (6 Bft) SO 1,00 h 0,127 mm 771 W/m 0,5 C 19,5 C 53,3 km/h (7 Bft)
06/04/2008 15:00 19,9 C 27 % 995,4 hPa 0,0 l/m 36,5 km/h (5 Bft) SO 1,00 h 0,127 mm 695 W/m 0,2 C 19,9 C 48,8 km/h (6 Bft)
06/04/2008 16:00 19,7 C 27 % 995,0 hPa 0,0 l/m 38,4 km/h (5 Bft) SO 1,00 h 0,762 mm 568 W/m -0,1 C 19,7 C 50,8 km/h (7 Bft)
06/04/2008 17:00 19,1 C 25 % 994,8 hPa 0,0 l/m 43,6 km/h (6 Bft) SO 1,00 h 0,000 mm 407 W/m -1,2 C 19,1 C 56,7 km/h (7 Bft)
06/04/2008 18:00 18,3 C 28 % 995,1 hPa 0,0 l/m 37,0 km/h (5 Bft) SO 1,00 h 6,426 mm 225 W/m -0,7 C 18,3 C 47,8 km/h (6 Bft)
06/04/2008 19:00 16,9 C 31 % 995,6 hPa 0,0 l/m 28,5 km/h (4 Bft) SO 0,50 h 0,483 mm 55 W/m -0,3 C 16,9 C 38,0 km/h (5 Bft)
06/04/2008 20:00 15,3 C 41 % 996,0 hPa 0,0 l/m 22,9 km/h (4 Bft) SO 0,00 h 0,279 mm 6 W/m 2,0 C 15,3 C 29,2 km/h (5 Bft)
06/04/2008 21:00 13,8 C 47 % 996,7 hPa 0,0 l/m 24,7 km/h (4 Bft) SO 0,00 h 0,178 mm 0 W/m 2,6 C 13,8 C 32,1 km/h (5 Bft)
06/04/2008 22:00 13,0 C 48 % 997,1 hPa 0,0 l/m 23,6 km/h (4 Bft) SO 0,00 h 0,152 mm 0 W/m 2,2 C 13,0 C 30,5 km/h (5 Bft)
06/04/2008 23:00 12,1 C 47 % 997,1 hPa 0,0 l/m 17,9 km/h (3 Bft) SO 0,00 h 0,152 mm 0 W/m 1,1 C 12,1 C 23,0 km/h (4 Bft)
Min-Date _ 05/04/08 04/04/08 06/04/08 - 31/03/08 - - - - 04/04/08 05/04/08 31/03/08
_ Min-Heure 02:38 11:39 17:15 - 00:37 - - - - 11:39 02:59 00:38
Minimum _ 7,1 C 18 % 994,8 hPa - 0,0 km/h (0 Bft) - - - - -7,0 C 4,8 C 0,0 km/h (0 Bft)
Max-Date _ 02/04/08 06/04/08 04/04/08 31/03/08 06/04/08 - 31/03/08 06/04/08 04/04/08 02/04/08 02/04/08 06/04/08
_ Max-Heure 14:48 06:01 11:15 00:00 17:21 - 10:46 18:00 13:31 15:56 14:48 17:14
Maximum _ 22,1 C 94 % 1018,1 hPa 0,0 l/m 56,3 km/h
SO (7 Bft)
- 0,02 h 6,426 mm 810 W/m 10,6 C 22,1 C 70,8 km/h
SO (8 Bft)
Moyenne _ 13,5 C 51 % 1011,1 hPa #0,0 l/m 7,2 km/h (2 Bft) O-NO #60:46 h #34,432 mm 382 W/m 2,8 C 13,5 C 10,5 km/h (2 Bft)
Roquefort les pins